createdAt,value
2023-03-03T00:02:19.216Z,100737.59
2023-03-03T00:07:23.189Z,100750.88
2023-03-03T00:12:28.062Z,100747.19
2023-03-03T00:17:31.922Z,100746.19
2023-03-03T00:22:37.130Z,100752.63
2023-03-03T00:27:38.680Z,100756.19
2023-03-03T00:32:50.294Z,100756.84
2023-03-03T00:37:55.582Z,100766.09
2023-03-03T00:43:00.208Z,100761.34
2023-03-03T00:48:17.589Z,100759.50
2023-03-03T00:53:20.959Z,100763.78
2023-03-03T00:58:23.558Z,100761.09
2023-03-03T01:03:26.814Z,100760.47
2023-03-03T01:08:29.007Z,100769.78
2023-03-03T01:13:32.214Z,100761.34
2023-03-03T01:18:35.233Z,100775.59
2023-03-03T01:23:36.961Z,100774.53
2023-03-03T01:28:38.548Z,100767.19
2023-03-03T01:33:40.181Z,100772.13
2023-03-03T01:38:41.799Z,100780.19
2023-03-03T01:43:46.689Z,100775.28
2023-03-03T01:48:48.423Z,100766.97
2023-03-03T01:53:52.768Z,100768.25
2023-03-03T01:59:01.070Z,100755.47
2023-03-03T02:04:02.699Z,100754.38
2023-03-03T02:09:33.763Z,100760.91
2023-03-03T02:14:35.473Z,100757.84
2023-03-03T02:19:51.248Z,100757.78
2023-03-03T02:24:57.603Z,100771.53
2023-03-03T02:30:10.015Z,100760.69
2023-03-03T02:35:34.006Z,100752.69
2023-03-03T02:40:40.978Z,100762.09
2023-03-03T02:45:44.360Z,100761.25
2023-03-03T02:50:46.079Z,100761.13
2023-03-03T02:55:48.082Z,100755.38
2023-03-03T03:00:50.289Z,100759.84
2023-03-03T03:05:57.872Z,100779.63
2023-03-03T03:11:00.249Z,100780.44
2023-03-03T03:16:02.793Z,100772.69
2023-03-03T03:21:12.641Z,100773.25
2023-03-03T03:26:15.578Z,100783.88
2023-03-03T03:31:19.584Z,100783.75
2023-03-03T03:36:21.818Z,100774.84
2023-03-03T03:41:23.844Z,100765.56
2023-03-03T03:46:25.504Z,100760.09
2023-03-03T03:51:27.478Z,100762.78
2023-03-03T03:56:29.162Z,100773.25
2023-03-03T04:01:33.754Z,100789.94
2023-03-03T04:06:35.742Z,100786.06
2023-03-03T04:11:39.080Z,100791.78
2023-03-03T04:16:42.672Z,100798.31
2023-03-03T04:21:45.310Z,100800.75
2023-03-03T04:26:47.009Z,100796.22
2023-03-03T04:31:51.462Z,100812.91
2023-03-03T04:36:54.109Z,100808.63
2023-03-03T04:41:56.205Z,100819.44
2023-03-03T04:46:58.367Z,100816.00
2023-03-03T04:52:00.280Z,100818.31
2023-03-03T04:57:02.254Z,100815.28
2023-03-03T05:02:05.345Z,100812.78
2023-03-03T05:07:06.996Z,100814.34
2023-03-03T05:12:08.749Z,100828.00
2023-03-03T05:17:10.331Z,100829.31
2023-03-03T05:22:11.932Z,100811.97
2023-03-03T05:27:13.553Z,100798.16
2023-03-03T05:32:15.564Z,100822.03
2023-03-03T05:37:17.220Z,100811.31
2023-03-03T05:42:19.178Z,100809.22
2023-03-03T05:47:20.786Z,100828.72
2023-03-03T05:52:24.230Z,100824.06
2023-03-03T05:57:25.864Z,100811.66
2023-03-03T06:02:27.580Z,100816.69
2023-03-03T06:07:29.184Z,100825.59
2023-03-03T06:12:30.977Z,100811.28
2023-03-03T06:17:32.534Z,100810.69
2023-03-03T06:22:34.268Z,100816.41
2023-03-03T06:27:35.889Z,100816.19
2023-03-03T06:32:37.480Z,100819.88
2023-03-03T06:37:39.164Z,100833.13
2023-03-03T06:42:40.849Z,100848.47
2023-03-03T06:47:42.523Z,100850.75
2023-03-03T06:52:44.360Z,100850.13
2023-03-03T06:57:45.935Z,100843.91
2023-03-03T07:02:50.443Z,100845.41
2023-03-03T07:07:52.006Z,100869.59
2023-03-03T07:12:54.777Z,100869.66
2023-03-03T07:18:00.202Z,100857.50
2023-03-03T07:23:21.657Z,100863.94
2023-03-03T07:28:25.750Z,100876.97
2023-03-03T07:33:34.356Z,100889.91
2023-03-03T07:38:42.885Z,100891.38
2023-03-03T07:43:55.001Z,100903.47
2023-03-03T07:48:58.356Z,100898.03
2023-03-03T07:54:18.444Z,100902.25
2023-03-03T07:59:25.333Z,100899.25
2023-03-03T08:04:41.718Z,100893.78
2023-03-03T08:09:44.970Z,100899.31
2023-03-03T08:14:47.088Z,100902.25
2023-03-03T08:19:50.057Z,100897.63
2023-03-03T08:24:51.655Z,100889.91
2023-03-03T08:29:53.281Z,100894.28
2023-03-03T08:34:55.085Z,100903.81
2023-03-03T08:39:56.810Z,100903.22
2023-03-03T08:44:58.413Z,100909.00
2023-03-03T08:49:59.993Z,100915.56
2023-03-03T08:55:01.602Z,100916.41
2023-03-03T09:00:03.383Z,100900.16
2023-03-03T09:05:05.919Z,100918.63
2023-03-03T09:10:08.170Z,100913.19
2023-03-03T09:15:15.208Z,100922.94
2023-03-03T09:20:29.020Z,100921.50
2023-03-03T09:25:32.162Z,100929.28
2023-03-03T09:30:38.619Z,100933.31
2023-03-03T09:35:41.792Z,100939.50
2023-03-03T09:40:45.991Z,100941.31
2023-03-03T09:45:59.749Z,100947.72
2023-03-03T09:51:08.347Z,100952.75
2023-03-03T09:56:21.365Z,100962.38
2023-03-03T10:02:00.649Z,100958.34
2023-03-03T10:07:39.017Z,100944.91
2023-03-03T10:13:12.875Z,100956.09
2023-03-03T10:18:32.904Z,100966.84
2023-03-03T10:23:56.220Z,100979.25
2023-03-03T10:29:31.159Z,100961.38
2023-03-03T10:34:41.495Z,100966.38
2023-03-03T10:39:46.174Z,100958.25
2023-03-03T10:45:21.224Z,100968.91
2023-03-03T10:50:46.335Z,100966.41
2023-03-03T10:56:11.048Z,100962.00
2023-03-03T11:01:48.071Z,100964.16
2023-03-03T11:06:55.721Z,100967.13
2023-03-03T11:12:22.792Z,100960.47
2023-03-03T11:17:39.376Z,100964.81
2023-03-03T11:22:55.023Z,100958.97
2023-03-03T11:28:17.172Z,100958.88
2023-03-03T11:33:37.218Z,100954.59
2023-03-03T11:38:57.422Z,100944.78
2023-03-03T11:44:45.706Z,100952.22
2023-03-03T11:50:00.412Z,100939.34
2023-03-03T11:55:19.171Z,100939.59
2023-03-03T12:00:42.525Z,100940.78
2023-03-03T12:05:53.163Z,100941.03
2023-03-03T12:11:25.963Z,100937.19
2023-03-03T12:16:52.795Z,100943.00
2023-03-03T12:22:06.959Z,100934.28
2023-03-03T12:27:17.247Z,100922.53
2023-03-03T12:32:28.049Z,100916.72
2023-03-03T12:38:07.814Z,100909.13
2023-03-03T12:43:35.354Z,100907.47
2023-03-03T12:48:37.047Z,100911.09
2023-03-03T12:53:38.566Z,100901.94
2023-03-03T12:58:48.741Z,100891.69
2023-03-03T13:04:08.872Z,100895.38
2023-03-03T13:09:37.308Z,100900.59
2023-03-03T13:14:54.190Z,100888.38
2023-03-03T13:20:00.976Z,100898.25
2023-03-03T13:25:27.049Z,100895.50
2023-03-03T13:30:33.644Z,100894.56
2023-03-03T13:35:41.795Z,100886.09
2023-03-03T13:40:46.611Z,100883.06
2023-03-03T13:46:26.167Z,100880.69
2023-03-03T13:51:43.052Z,100877.25
2023-03-03T13:57:02.838Z,100874.88
2023-03-03T14:02:29.727Z,100868.41
2023-03-03T14:07:59.961Z,100867.22
2023-03-03T14:13:13.254Z,100852.28
2023-03-03T14:18:29.331Z,100865.06
2023-03-03T14:23:50.621Z,100847.38
2023-03-03T14:29:05.110Z,100844.06
2023-03-03T14:34:09.484Z,100849.13
2023-03-03T14:39:38.808Z,100846.63
2023-03-03T14:44:46.361Z,100841.53
2023-03-03T14:49:48.265Z,100831.44
2023-03-03T14:54:56.050Z,100833.81
2023-03-03T15:00:01.195Z,100828.00
2023-03-03T15:05:16.799Z,100821.69
2023-03-03T15:10:31.302Z,100829.59
2023-03-03T15:15:32.928Z,100827.50
2023-03-03T15:21:04.050Z,100829.84
2023-03-03T15:26:19.629Z,100832.94
2023-03-03T15:31:51.762Z,100821.16
2023-03-03T15:36:57.235Z,100816.63
2023-03-03T15:42:15.800Z,100823.41
2023-03-03T15:47:46.608Z,100821.56
2023-03-03T15:52:53.085Z,100826.91
2023-03-03T15:58:42.737Z,100827.88
2023-03-03T16:03:48.460Z,100829.88
2023-03-03T16:08:52.869Z,100825.06
2023-03-03T16:14:01.738Z,100826.66
2023-03-03T16:19:14.066Z,100817.69
2023-03-03T16:24:41.083Z,100828.06
2023-03-03T16:29:57.715Z,100826.19
2023-03-03T16:35:18.105Z,100831.22
2023-03-03T16:40:23.991Z,100826.06
2023-03-03T16:45:34.638Z,100837.00
2023-03-03T16:51:02.477Z,100828.91
2023-03-03T16:56:06.723Z,100825.88
2023-03-03T17:01:25.344Z,100827.22
2023-03-03T17:06:35.787Z,100826.69
2023-03-03T17:12:00.640Z,100833.47
2023-03-03T17:17:12.162Z,100830.47
2023-03-03T17:22:21.198Z,100832.72
2023-03-03T17:27:40.904Z,100825.00
2023-03-03T17:33:17.210Z,100838.59
2023-03-03T17:38:55.412Z,100840.97
2023-03-03T17:44:02.724Z,100843.75
2023-03-03T17:49:25.825Z,100840.41
2023-03-03T17:54:33.141Z,100838.94
2023-03-03T18:00:01.079Z,100844.69
2023-03-03T18:05:18.944Z,100841.44
2023-03-03T18:10:39.039Z,100844.47
2023-03-03T18:16:11.290Z,100837.03
2023-03-03T18:21:22.349Z,100845.44
2023-03-03T18:26:33.756Z,100845.09
2023-03-03T18:31:52.535Z,100838.09
2023-03-03T18:36:56.165Z,100840.47
2023-03-03T18:42:05.804Z,100841.16
2023-03-03T18:47:07.636Z,100843.44
2023-03-03T18:52:38.672Z,100847.91
2023-03-03T18:57:40.292Z,100851.13
2023-03-03T19:02:52.122Z,100845.56
2023-03-03T19:07:58.212Z,100843.91
2023-03-03T19:13:00.082Z,100844.63
2023-03-03T19:18:03.707Z,100851.34
2023-03-03T19:23:07.406Z,100845.75
2023-03-03T19:28:11.742Z,100847.22
2023-03-03T19:33:23.414Z,100838.75
2023-03-03T19:38:56.415Z,100836.63
2023-03-03T19:44:42.862Z,100836.34
2023-03-03T19:49:57.704Z,100840.66
2023-03-03T19:55:02.242Z,100830.50
2023-03-03T20:00:32.662Z,100841.38
2023-03-03T20:05:46.209Z,100844.50
2023-03-03T20:10:48.663Z,100839.56
2023-03-03T20:16:03.477Z,100834.19
2023-03-03T20:21:20.315Z,100828.06
2023-03-03T20:26:27.232Z,100825.22
2023-03-03T20:32:06.745Z,100827.28
2023-03-03T20:37:38.717Z,100822.59
2023-03-03T20:42:52.844Z,100822.91
2023-03-03T20:48:32.304Z,100817.47
2023-03-03T20:53:39.511Z,100812.88
2023-03-03T20:58:56.360Z,100806.66
2023-03-03T21:04:19.880Z,100799.09
2023-03-03T21:09:26.727Z,100803.81
2023-03-03T21:14:35.751Z,100793.59
2023-03-03T21:19:37.449Z,100798.66
2023-03-03T21:24:56.609Z,100794.88
2023-03-03T21:30:17.164Z,100777.50
2023-03-03T21:35:23.471Z,100780.81
2023-03-03T21:40:29.442Z,100785.19
2023-03-03T21:45:31.061Z,100777.59
2023-03-03T21:50:35.541Z,100784.63
2023-03-03T21:55:37.117Z,100781.50
2023-03-03T22:00:39.783Z,100774.78
2023-03-03T22:05:41.727Z,100769.00
2023-03-03T22:10:43.368Z,100763.44
2023-03-03T22:15:44.957Z,100768.50
2023-03-03T22:20:48.073Z,100767.06
2023-03-03T22:25:49.832Z,100766.84
2023-03-03T22:30:51.481Z,100762.69
2023-03-03T22:35:53.154Z,100763.63
2023-03-03T22:40:55.719Z,100749.84
2023-03-03T22:45:57.777Z,100743.59
2023-03-03T22:50:59.457Z,100746.63
2023-03-03T22:56:01.309Z,100741.69
2023-03-03T23:01:04.720Z,100738.88
2023-03-03T23:06:06.616Z,100730.94
2023-03-03T23:11:08.267Z,100739.44
2023-03-03T23:16:09.936Z,100732.22
2023-03-03T23:21:11.622Z,100727.16
2023-03-03T23:26:13.274Z,100716.94
2023-03-03T23:31:14.914Z,100709.38
2023-03-03T23:36:16.606Z,100710.63
2023-03-03T23:41:18.214Z,100705.97
2023-03-03T23:46:19.780Z,100699.25
2023-03-03T23:51:21.378Z,100700.59
2023-03-03T23:56:23.004Z,100702.09
